Time;durP1;ratioP1;P1;durP2;ratioP2;P2;SDS_P1;SDS_P2;PMS_P1;PMS_P2;Temp;Humidity;BMP_temperature;BMP_pressure;BME280_temperature;BME280_humidity;BME280_pressure;Samples;Min_cycle;Max_cycle;Signal;HPM_P1;HPM_P2
2020/12/09 00:00:16;;;;;;;61.42;24.10;;;;;;;-0.90;76.74;100485.80;1727553;80;26569;-72
2020/12/09 00:02:44;;;;;;;67.03;26.17;;;;;;;-0.93;76.79;100490.19;1720222;81;25823;-72
2020/12/09 00:05:12;;;;;;;59.53;24.32;;;;;;;-0.93;76.83;100487.55;1733554;80;28384;-71
2020/12/09 00:07:40;;;;;;;63.42;23.15;;;;;;;-0.94;76.83;100484.05;1732953;80;26412;-71
2020/12/09 00:10:08;;;;;;;66.07;27.30;;;;;;;-0.94;76.84;100484.05;1752953;80;25882;-71
2020/12/09 00:12:37;;;;;;;64.20;23.98;;;;;;;-0.96;76.83;100487.55;1742123;80;26262;-71
2020/12/09 00:15:08;;;;;;;62.03;24.98;;;;;;;-0.96;76.87;100487.11;1730390;80;25909;-71
2020/12/09 00:17:36;;;;;;;66.55;26.07;;;;;;;-0.97;76.89;100492.38;1728221;80;27736;-72
2020/12/09 00:20:05;;;;;;;67.25;24.77;;;;;;;-0.97;76.93;100492.38;1756351;80;25769;-72
2020/12/09 00:22:35;;;;;;;58.20;23.52;;;;;;;-0.98;76.95;100491.50;1743111;80;25797;-72
2020/12/09 00:25:04;;;;;;;61.42;22.85;;;;;;;-0.98;76.97;100495.45;1749282;81;25878;-72
2020/12/09 00:27:34;;;;;;;60.98;25.10;;;;;;;-0.97;76.96;100489.74;1729548;81;25919;-71
2020/12/09 00:30:07;;;;;;;68.33;25.20;;;;;;;-1.03;77.00;100488.86;1743728;81;27426;-71
2020/12/09 00:32:36;;;;;;;64.35;25.27;;;;;;;-0.96;77.00;100495.45;1720531;81;25839;-73
2020/12/09 00:35:07;;;;;;;59.27;23.70;;;;;;;-0.99;76.98;100489.74;1703688;82;25873;-72
2020/12/09 00:37:35;;;;;;;66.07;24.23;;;;;;;-1.02;76.98;100491.94;1711766;81;26034;-71
2020/12/09 00:40:05;;;;;;;62.98;25.23;;;;;;;-1.02;77.00;100494.56;1727209;82;25922;-71
2020/12/09 00:42:34;;;;;;;58.52;23.95;;;;;;;-1.02;77.03;100501.58;1715471;81;28205;-71
2020/12/09 00:45:05;;;;;;;65.83;23.47;;;;;;;-1.04;77.06;100493.69;1724799;82;25940;-73
2020/12/09 00:47:33;;;;;;;68.85;23.80;;;;;;;-1.04;77.06;100503.33;1721772;81;25919;-73
2020/12/09 00:50:27;;;;;;;66.02;25.92;;;;;;;-1.04;77.13;100497.63;1703324;82;26073;-71
2020/12/09 00:52:30;;;;;;;65.92;26.65;;;;;;;-1.00;77.17;100494.13;1701493;81;25910;-71
2020/12/09 00:54:59;;;;;;;60.52;25.52;;;;;;;-0.99;77.16;100493.69;1704785;81;27851;-71
2020/12/09 00:57:26;;;;;;;66.87;24.37;;;;;;;-0.96;77.20;100497.64;1696783;81;25937;-71
2020/12/09 00:59:54;;;;;;;66.80;24.80;;;;;;;-0.94;77.23;100501.58;1703328;82;25917;-70
2020/12/09 01:02:22;;;;;;;61.42;23.85;;;;;;;-0.90;77.20;100502.91;1705148;81;26225;-73
2020/12/09 01:04:51;;;;;;;60.03;25.65;;;;;;;-0.85;77.24;100507.73;1704997;83;25836;-72
2020/12/09 01:07:19;;;;;;;68.02;26.75;;;;;;;-0.83;77.21;100509.05;1698298;81;28356;-72
2020/12/09 01:09:48;;;;;;;73.33;26.37;;;;;;;-0.78;77.28;100504.66;1694049;82;26647;-71
2020/12/09 01:12:15;;;;;;;63.30;25.08;;;;;;;-0.75;77.34;100504.23;1727507;81;25835;-72
2020/12/09 01:14:44;;;;;;;58.48;24.72;;;;;;;-0.71;77.29;100498.09;1701328;82;25988;-72
2020/12/09 01:17:12;;;;;;;62.43;24.98;;;;;;;-0.69;77.33;100495.02;1695899;81;25874;-71
2020/12/09 01:19:39;;;;;;;70.12;26.77;;;;;;;-0.67;77.33;100501.16;1706559;82;27779;-71
2020/12/09 01:22:07;;;;;;;66.45;25.52;;;;;;;-0.62;77.43;100501.59;1700996;83;25800;-71
2020/12/09 01:24:35;;;;;;;63.58;24.90;;;;;;;-0.56;77.47;100493.70;1707705;82;26003;-71
2020/12/09 01:27:03;;;;;;;65.05;25.35;;;;;;;-0.55;77.42;100488.43;1704124;82;26705;-71
2020/12/09 01:29:31;;;;;;;65.05;24.70;;;;;;;-0.52;77.52;100483.16;1731736;81;25986;-71
2020/12/09 01:32:02;;;;;;;62.67;25.85;;;;;;;-0.48;77.48;100475.70;1731826;81;27773;-71
2020/12/09 01:34:30;;;;;;;57.23;23.52;;;;;;;-0.47;77.53;100473.94;1710136;81;26209;-71
2020/12/09 01:37:01;;;;;;;66.33;24.77;;;;;;;-0.47;77.54;100481.84;1728656;81;25946;-70
2020/12/09 01:39:28;;;;;;;52.80;23.25;;;;;;;-0.50;77.51;100483.16;1705579;81;26615;-71
2020/12/09 01:41:57;;;;;;;62.85;23.00;;;;;;;-0.54;77.55;100487.98;1710490;82;25803;-70
2020/12/09 01:44:25;;;;;;;70.35;26.35;;;;;;;-0.55;77.54;100491.06;1701329;81;27481;-70
2020/12/09 01:46:53;;;;;;;54.75;23.65;;;;;;;-0.55;77.63;100495.01;1723521;81;25986;-70
2020/12/09 01:49:21;;;;;;;59.70;24.85;;;;;;;-0.56;77.68;100488.43;1705204;81;26341;-71
2020/12/09 01:51:49;;;;;;;58.30;24.05;;;;;;;-0.56;77.65;100492.38;1708713;82;26426;-71
2020/12/09 01:54:17;;;;;;;62.15;24.35;;;;;;;-0.60;77.61;100487.55;1700118;81;25873;-71
2020/12/09 01:57:03;;;;;;;67.05;23.50;;;;;;;-0.64;77.63;100488.88;1718662;81;27837;-71
2020/12/09 01:59:30;;;;;;;58.78;24.20;;;;;;;-0.67;77.64;100485.80;1744611;81;26000;-71
2020/12/09 02:01:59;;;;;;;66.70;26.42;;;;;;;-0.70;77.71;100481.42;1752191;81;27798;-71
2020/12/09 02:04:30;;;;;;;54.03;22.52;;;;;;;-0.72;77.70;100485.80;1721504;81;26434;-72
2020/12/09 02:06:58;;;;;;;54.25;23.57;;;;;;;-0.73;77.76;100485.80;1712713;81;25960;-71
2020/12/09 02:09:27;;;;;;;61.13;23.10;;;;;;;-0.71;77.74;100495.89;1746083;80;27595;-71
2020/12/09 02:11:57;;;;;;;57.20;23.92;;;;;;;-0.76;77.74;100496.33;1747115;81;25764;-71
2020/12/09 02:14:25;;;;;;;56.08;23.62;;;;;;;-0.79;77.66;100491.07;1720435;81;25795;-71
2020/12/09 02:16:57;;;;;;;57.58;24.45;;;;;;;-0.80;77.75;100501.16;1714428;81;25995;-71
2020/12/09 02:19:26;;;;;;;52.20;22.02;;;;;;;-0.83;77.73;100501.16;1713616;81;25884;-71
2020/12/09 02:21:54;;;;;;;57.03;21.62;;;;;;;-0.86;77.68;100495.89;1736633;81;28400;-71
2020/12/09 02:24:22;;;;;;;63.05;24.82;;;;;;;-0.88;77.72;100500.27;1708870;81;25832;-71
2020/12/09 02:26:50;;;;;;;57.27;22.80;;;;;;;-0.89;77.76;100499.84;1701957;82;25850;-71
2020/12/09 02:29:18;;;;;;;55.35;23.87;;;;;;;-0.90;77.84;100492.82;1702566;81;26301;-71
2020/12/09 02:31:45;;;;;;;51.95;20.45;;;;;;;-0.88;77.84;100488.00;1700862;82;25800;-71
2020/12/09 02:34:13;;;;;;;62.58;24.60;;;;;;;-0.88;77.83;100493.26;1710047;81;28075;-71
2020/12/09 02:36:43;;;;;;;52.45;23.15;;;;;;;-0.87;77.90;100490.19;1718656;81;26024;-71
2020/12/09 02:39:10;;;;;;;56.05;23.38;;;;;;;-0.87;77.88;100491.06;1737646;81;25948;-71
2020/12/09 02:41:38;;;;;;;63.95;23.60;;;;;;;-0.89;77.85;100481.42;1707924;82;25934;-71
2020/12/09 02:44:06;;;;;;;61.02;23.65;;;;;;;-0.90;77.88;100483.61;1700669;82;25855;-71
2020/12/09 02:46:34;;;;;;;54.10;22.48;;;;;;;-0.93;77.84;100479.23;1712359;81;27254;-70
2020/12/09 02:49:02;;;;;;;50.15;21.12;;;;;;;-0.92;77.90;100478.78;1718931;81;25871;-71
2020/12/09 02:51:30;;;;;;;52.10;21.57;;;;;;;-0.90;77.91;100484.48;1707214;81;25819;-72
2020/12/09 02:53:57;;;;;;;55.70;24.47;;;;;;;-0.88;77.94;100483.17;1690731;83;26553;-71
2020/12/09 02:56:25;;;;;;;55.85;23.12;;;;;;;-0.89;78.00;100474.41;1691783;82;25763;-71
2020/12/09 02:58:53;;;;;;;58.40;24.12;;;;;;;-0.88;77.92;100477.47;1727514;81;26888;-71
2020/12/09 03:01:21;;;;;;;56.83;22.00;;;;;;;-0.88;78.03;100472.21;1694057;81;25964;-73
2020/12/09 03:03:48;;;;;;;50.78;22.27;;;;;;;-0.87;77.99;100473.97;1690489;83;25940;-71
2020/12/09 03:06:16;;;;;;;51.02;21.23;;;;;;;-0.86;77.99;100469.14;1696597;81;25902;-71
2020/12/09 03:08:46;;;;;;;53.10;22.37;;;;;;;-0.84;78.03;100465.20;1694446;82;26594;-71
2020/12/09 03:11:14;;;;;;;50.30;21.87;;;;;;;-0.84;78.06;100462.56;1722912;81;27988;-71
2020/12/09 03:13:41;;;;;;;50.00;22.42;;;;;;;-0.85;78.05;100460.37;1693335;83;26041;-71
2020/12/09 03:16:10;;;;;;;58.73;21.95;;;;;;;-0.84;78.03;100472.65;1695297;82;26013;-72
2020/12/09 03:18:37;;;;;;;52.13;21.55;;;;;;;-0.86;78.03;100473.52;1688107;83;27038;-71
2020/12/09 03:21:08;;;;;;;57.17;22.45;;;;;;;-0.87;78.07;100476.59;1691262;82;25784;-71
2020/12/09 03:23:36;;;;;;;60.63;23.18;;;;;;;-0.86;78.14;100485.36;1693902;83;28171;-71
2020/12/09 03:26:05;;;;;;;59.27;24.23;;;;;;;-0.86;78.06;100478.79;1710258;81;26228;-71
2020/12/09 03:28:35;;;;;;;55.92;22.85;;;;;;;-0.85;78.14;100481.86;1716818;81;26046;-71
2020/12/09 03:31:04;;;;;;;50.25;19.87;;;;;;;-0.84;78.12;100480.55;1692000;83;26600;-73
2020/12/09 03:33:33;;;;;;;57.00;23.98;;;;;;;-0.83;78.17;100488.88;1693034;81;25906;-71
2020/12/09 03:36:02;;;;;;;56.92;22.80;;;;;;;-0.83;78.15;100488.00;1697791;83;27747;-72
2020/12/09 03:38:30;;;;;;;61.58;23.47;;;;;;;-0.83;78.18;100482.73;1695946;81;25845;-72
2020/12/09 03:40:58;;;;;;;43.63;19.10;;;;;;;-0.84;78.22;100480.55;1717257;81;25880;-71
2020/12/09 03:43:25;;;;;;;49.55;21.50;;;;;;;-0.81;78.22;100479.23;1696101;81;26729;-72
2020/12/09 03:45:53;;;;;;;52.08;21.68;;;;;;;-0.83;78.24;100473.09;1713503;81;26577;-71
2020/12/09 03:48:21;;;;;;;50.08;21.50;;;;;;;-0.83;78.23;100477.03;1715233;81;29145;-72
2020/12/09 03:50:49;;;;;;;50.43;21.60;;;;;;;-0.82;78.25;100486.69;1688794;83;27148;-72
2020/12/09 03:53:18;;;;;;;51.30;21.07;;;;;;;-0.81;78.26;100484.93;1693166;82;25857;-72
2020/12/09 03:55:45;;;;;;;58.00;22.58;;;;;;;-0.82;78.27;100480.55;1696167;83;26019;-72
2020/12/09 03:58:13;;;;;;;49.30;21.68;;;;;;;-0.80;78.31;100488.88;1692770;81;26668;-72
2020/12/09 04:00:42;;;;;;;61.02;25.05;;;;;;;-0.80;78.30;100486.69;1697698;83;25982;-72
2020/12/09 04:03:09;;;;;;;50.80;20.88;;;;;;;-0.80;78.31;100492.83;1696355;83;25976;-71
2020/12/09 04:05:37;;;;;;;56.23;22.17;;;;;;;-0.79;78.34;100491.95;1686350;82;25854;-72
2020/12/09 04:08:05;;;;;;;60.65;22.85;;;;;;;-0.77;78.35;100491.95;1703107;83;27257;-72
2020/12/09 04:10:32;;;;;;;52.80;22.65;;;;;;;-0.75;78.35;100494.14;1722275;81;25792;-71
2020/12/09 04:13:00;;;;;;;52.20;22.48;;;;;;;-0.77;78.34;100500.72;1697107;82;26686;-71
2020/12/09 04:15:28;;;;;;;54.93;21.17;;;;;;;-0.74;78.38;100505.10;1693350;81;25862;-71
2020/12/09 04:17:56;;;;;;;54.73;21.33;;;;;;;-0.75;78.35;100505.98;1722894;81;25807;-73
2020/12/09 04:20:23;;;;;;;57.85;21.12;;;;;;;-0.77;78.32;100503.34;1697290;81;26128;-71
2020/12/09 04:22:51;;;;;;;48.70;21.30;;;;;;;-0.78;78.37;100504.22;1722941;81;25933;-71
2020/12/09 04:25:19;;;;;;;53.98;23.42;;;;;;;-0.78;78.38;100507.30;1696598;81;28253;-73
2020/12/09 04:27:46;;;;;;;51.28;22.15;;;;;;;-0.77;78.38;100506.42;1720084;81;25864;-71
2020/12/09 04:30:14;;;;;;;52.90;21.62;;;;;;;-0.77;78.36;100506.42;1704569;81;25820;-71
2020/12/09 04:32:42;;;;;;;52.20;21.85;;;;;;;-0.79;78.35;100502.91;1711691;81;25778;-71
2020/12/09 04:35:10;;;;;;;47.95;19.87;;;;;;;-0.80;78.35;100502.03;1716758;81;25911;-71
2020/12/09 04:37:39;;;;;;;52.75;21.62;;;;;;;-0.80;78.34;100497.21;1686885;83;27888;-72
2020/12/09 04:40:07;;;;;;;53.23;23.27;;;;;;;-0.84;78.37;100498.96;1688714;83;25794;-73
2020/12/09 04:42:35;;;;;;;62.05;22.25;;;;;;;-0.83;78.37;100507.30;1680514;82;26040;-74
2020/12/09 04:45:04;;;;;;;56.73;21.52;;;;;;;-0.84;78.40;100505.54;1725908;81;26224;-71
2020/12/09 04:47:45;;;;;;;51.33;21.48;;;;;;;-0.83;78.39;100512.56;1705881;81;25919;-71
2020/12/09 04:50:13;;;;;;;50.78;22.17;;;;;;;-0.83;78.40;100519.13;1699934;81;27288;-72
2020/12/09 04:52:46;;;;;;;49.30;20.15;;;;;;;-0.82;78.42;100518.70;1735109;81;26545;-72
2020/12/09 04:55:17;;;;;;;54.05;22.07;;;;;;;-0.79;78.45;100520.02;1711254;81;25854;-73
2020/12/09 04:58:12;;;;;;;50.90;21.60;;;;;;;-0.76;78.48;100530.55;1727253;81;25864;-73
2020/12/09 05:00:43;;;;;;;54.77;21.07;;;;;;;-0.74;78.46;100527.03;1722894;81;25879;-72
2020/12/09 05:03:20;;;;;;;47.62;21.17;;;;;;;-0.72;78.44;100528.35;1739926;81;27900;-72
2020/12/09 05:05:48;;;;;;;50.03;21.73;;;;;;;-0.71;78.45;100532.73;1696981;82;25831;-71
2020/12/09 05:08:22;;;;;;;56.42;21.45;;;;;;;-0.70;78.40;100522.65;1715024;81;25772;-72
2020/12/09 05:10:52;;;;;;;59.53;21.33;;;;;;;-0.71;78.43;100520.89;1709382;82;25847;-71
2020/12/09 05:13:24;;;;;;;52.33;21.05;;;;;;;-0.70;78.43;100518.70;1704087;81;25830;-71
2020/12/09 05:15:58;;;;;;;58.55;22.05;;;;;;;-0.71;78.38;100531.42;1714598;82;27982;-71
2020/12/09 05:18:41;;;;;;;49.10;20.27;;;;;;;-0.74;78.36;100533.61;1715501;81;26026;-71
2020/12/09 05:21:17;;;;;;;54.33;19.95;;;;;;;-0.74;78.43;100531.42;1720251;81;25920;-71
2020/12/09 05:23:52;;;;;;;50.48;21.68;;;;;;;-0.74;78.40;100524.41;1742611;81;26672;-71
2020/12/09 05:26:32;;;;;;;48.75;19.37;;;;;;;-0.75;78.42;100531.86;1710763;81;25820;-74
2020/12/09 05:29:13;;;;;;;46.65;20.45;;;;;;;-0.78;78.37;100528.34;1720294;81;27584;-71
2020/12/09 05:31:50;;;;;;;;;;;;;;;-0.79;78.39;100526.59;1709716;82;25889;-74
2020/12/09 05:34:33;;;;;;;45.95;19.60;;;;;;;-0.80;78.42;100531.42;1709833;81;25980;-74
2020/12/09 05:37:08;;;;;;;47.67;19.30;;;;;;;-0.82;78.43;100529.22;1740144;81;26043;-73
2020/12/09 05:39:55;;;;;;;48.08;19.65;;;;;;;-0.82;78.41;100530.54;1733970;81;25884;-73
2020/12/09 05:42:24;;;;;;;45.83;20.55;;;;;;;-0.85;78.40;100530.53;1731605;81;27156;-74
2020/12/09 05:44:51;;;;;;;45.10;20.00;;;;;;;-0.86;78.40;100541.94;1707989;82;25899;-72
2020/12/09 05:47:22;;;;;;;44.45;18.45;;;;;;;-0.87;78.39;100552.90;1698833;81;25414;-74
2020/12/09 05:49:50;;;;;;;47.23;20.48;;;;;;;-0.90;78.38;100558.59;1729166;81;26054;-74
2020/12/09 05:52:20;;;;;;;50.25;20.82;;;;;;;-0.90;78.38;100557.28;1716726;81;25932;-73
2020/12/09 05:54:51;;;;;;;44.15;19.52;;;;;;;-0.94;78.37;100551.56;1732016;81;27965;-72
2020/12/09 05:57:26;;;;;;;44.38;19.40;;;;;;;-0.96;78.35;100550.25;1707138;81;25923;-71
2020/12/09 05:59:54;;;;;;;52.30;19.55;;;;;;;-0.97;78.39;100548.94;1727073;81;26732;-70
2020/12/09 06:02:25;;;;;;;47.90;20.57;;;;;;;-1.00;78.34;100552.00;1739101;81;25733;-72
2020/12/09 06:04:56;;;;;;;46.75;17.95;;;;;;;-1.01;78.36;100544.11;1748130;81;25923;-71
2020/12/09 06:07:26;;;;;;;46.23;19.10;;;;;;;-1.03;78.35;100533.58;1729871;81;27405;-72
2020/12/09 06:10:17;;;;;;;41.90;17.63;;;;;;;-1.04;78.38;100546.73;1730608;81;25931;-71
2020/12/09 06:12:55;;;;;;;45.57;17.53;;;;;;;-1.05;78.33;100553.73;1733918;81;26198;-70
2020/12/09 06:15:32;;;;;;;41.53;17.35;;;;;;;-1.08;78.38;100547.16;1700837;81;25951;-70
2020/12/09 06:18:13;;;;;;;51.68;19.50;;;;;;;-1.09;78.38;100545.41;1742333;81;25862;-70
2020/12/09 06:20:42;;;;;;;51.18;19.60;;;;;;;-1.11;78.38;100539.27;1700580;82;27780;-71
2020/12/09 06:23:15;;;;;;;43.50;17.73;;;;;;;-1.11;78.44;100536.63;1705237;81;25856;-71
2020/12/09 06:25:45;;;;;;;44.60;17.35;;;;;;;-1.11;78.38;100536.63;1706294;81;26657;-71
2020/12/09 06:28:19;;;;;;;45.95;18.92;;;;;;;-1.11;78.41;100537.95;1708733;81;25900;-71
2020/12/09 06:30:49;;;;;;;42.55;16.97;;;;;;;-1.11;78.41;100544.96;1728396;81;25874;-71
2020/12/09 06:33:43;;;;;;;48.80;20.08;;;;;;;-1.12;78.40;100541.89;1740702;81;27377;-71
2020/12/09 06:36:23;;;;;;;42.60;18.45;;;;;;;-1.11;78.43;100557.67;1706655;81;26374;-71
2020/12/09 06:39:16;;;;;;;44.85;18.70;;;;;;;-1.11;78.43;100564.25;1707724;81;25900;-71
2020/12/09 06:41:56;;;;;;;44.65;17.90;;;;;;;-1.09;78.42;100573.45;1702397;81;25881;-71
2020/12/09 06:44:29;;;;;;;42.90;18.67;;;;;;;-1.09;78.43;100574.77;1705596;81;25969;-70
2020/12/09 06:46:57;;;;;;;57.93;20.43;;;;;;;-1.08;78.44;100572.14;1717710;81;27827;-74
2020/12/09 06:49:38;;;;;;;44.58;18.65;;;;;;;-1.08;78.47;100580.04;1740545;81;25936;-72
2020/12/09 06:52:14;;;;;;;31.02;14.05;;;;;;;-1.04;78.46;100588.38;1712302;81;25864;-73
2020/12/09 06:54:46;;;;;;;47.55;19.07;;;;;;;-0.99;78.47;100589.27;1722072;81;26564;-74
2020/12/09 06:57:34;;;;;;;45.88;19.10;;;;;;;-0.95;78.45;100584.89;1735426;80;26140;-73
2020/12/09 07:00:15;;;;;;;41.83;17.62;;;;;;;-0.89;78.48;100586.22;1710530;81;27542;-71
2020/12/09 07:02:47;;;;;;;45.25;17.48;;;;;;;-0.82;78.47;100593.69;1730748;81;25898;-71
2020/12/09 07:05:32;;;;;;;39.40;16.40;;;;;;;-0.77;78.46;100594.58;1707972;81;25770;-70
2020/12/09 07:08:02;;;;;;;53.10;18.85;;;;;;;-0.75;78.42;100595.02;1710539;81;26151;-72
2020/12/09 07:10:32;;;;;;;52.95;17.45;;;;;;;-0.72;78.41;100591.52;1737732;80;25817;-71
2020/12/09 07:13:05;;;;;;;48.08;17.90;;;;;;;-0.70;78.42;100599.85;1728272;81;28746;-72
2020/12/09 07:15:35;;;;;;;47.80;18.32;;;;;;;-0.64;78.47;100598.10;1727599;80;26706;-72
2020/12/09 07:18:05;;;;;;;43.27;16.60;;;;;;;-0.59;78.46;100595.04;1725973;81;26149;-73
2020/12/09 07:20:34;;;;;;;40.58;16.65;;;;;;;-0.56;78.40;100588.02;1724199;81;26209;-72
2020/12/09 07:23:04;;;;;;;40.52;15.13;;;;;;;-0.53;78.41;100584.08;1714390;81;25868;-73
2020/12/09 07:25:34;;;;;;;52.33;17.75;;;;;;;-0.53;78.32;100591.98;1704422;81;27493;-72
2020/12/09 07:28:03;;;;;;;44.83;16.80;;;;;;;-0.54;78.40;100596.80;1707001;81;25853;-73
2020/12/09 07:30:32;;;;;;;37.55;16.73;;;;;;;-0.48;78.41;100603.83;1732068;80;26863;-72
2020/12/09 07:33:00;;;;;;;42.48;16.45;;;;;;;-0.46;78.43;100604.70;1731632;81;25868;-73
2020/12/09 07:35:28;;;;;;;44.20;17.98;;;;;;;-0.42;78.41;100607.34;1732066;81;25805;-71
2020/12/09 07:37:58;;;;;;;42.33;18.20;;;;;;;-0.39;78.43;100603.83;1713255;81;27781;-72
2020/12/09 07:40:33;;;;;;;42.45;17.60;;;;;;;-0.34;78.42;100612.61;1732738;80;25820;-72
2020/12/09 07:43:13;;;;;;;43.80;18.32;;;;;;;-0.32;78.39;100617.88;1751238;80;25815;-70
2020/12/09 07:45:44;;;;;;;51.05;17.25;;;;;;;-0.27;78.43;100618.31;1734874;81;26026;-74
2020/12/09 07:48:19;;;;;;;45.50;18.37;;;;;;;-0.22;78.38;100619.20;1722806;80;25980;-72
2020/12/09 07:50:53;;;;;;;47.15;18.57;;;;;;;-0.27;78.32;100607.78;1761942;80;27542;-73
2020/12/09 07:53:21;;;;;;;45.63;18.70;;;;;;;-0.21;78.33;100621.39;1733377;80;25931;-73
2020/12/09 07:55:51;;;;;;;47.93;18.75;;;;;;;-0.22;78.31;100618.31;1727697;81;25894;-72
2020/12/09 07:58:19;;;;;;;50.45;18.92;;;;;;;-0.18;78.40;100622.70;1766388;79;26606;-72
2020/12/09 08:00:49;;;;;;;41.90;18.02;;;;;;;-0.16;78.33;100616.56;1741347;80;25959;-73
2020/12/09 08:03:23;;;;;;;42.88;17.92;;;;;;;-0.17;78.31;100616.56;1759634;79;27831;-71
2020/12/09 08:05:54;;;;;;;43.35;18.17;;;;;;;-0.12;78.39;100622.70;1738776;79;25891;-73
2020/12/09 08:08:25;;;;;;;44.13;17.67;;;;;;;-0.09;78.33;100615.68;1750124;79;25960;-72
2020/12/09 08:10:53;;;;;;;59.40;19.12;;;;;;;-0.07;78.33;100611.73;1773197;79;25824;-72
2020/12/09 08:13:23;;;;;;;45.15;18.87;;;;;;;-0.02;78.42;100613.48;1745537;79;25912;-71
2020/12/09 08:16:02;;;;;;;42.70;18.62;;;;;;;-0.02;78.33;100611.28;1740878;81;27070;-71
2020/12/09 08:18:29;;;;;;;48.98;20.23;;;;;;;-0.01;78.28;100616.99;1739483;79;25912;-71
2020/12/09 08:20:57;;;;;;;57.20;19.82;;;;;;;-0.01;78.29;100606.45;1740223;81;25810;-72
2020/12/09 08:23:42;;;;;;;47.73;19.55;;;;;;;-0.04;78.29;100615.67;1736856;79;25949;-71
2020/12/09 08:26:10;;;;;;;56.42;19.30;;;;;;;-0.02;78.34;100620.51;1733037;79;25751;-72
2020/12/09 08:28:46;;;;;;;59.55;22.15;;;;;;;0.04;78.36;100613.87;1738269;81;26123;-72
2020/12/09 08:31:17;;;;;;;53.45;20.35;;;;;;;0.06;78.38;100616.52;1737577;79;26003;-73
2020/12/09 08:33:45;;;;;;;64.07;20.55;;;;;;;0.06;78.37;100619.15;1741440;81;26870;-71
2020/12/09 08:36:14;;;;;;;51.05;20.45;;;;;;;0.12;78.44;100624.41;1731874;79;26281;-72
2020/12/09 08:38:51;;;;;;;55.12;20.32;;;;;;;0.16;78.46;100618.25;1737791;81;25920;-72
2020/12/09 08:41:30;;;;;;;44.30;18.52;;;;;;;0.20;78.46;100618.69;1759232;79;28413;-71
2020/12/09 08:44:00;;;;;;;50.88;21.73;;;;;;;0.21;78.38;100625.27;1740922;80;26422;-71
2020/12/09 08:46:30;;;;;;;57.70;23.25;;;;;;;0.22;78.46;100622.20;1735281;79;25849;-71
2020/12/09 08:48:58;;;;;;;84.13;27.02;;;;;;;0.26;78.50;100622.19;1741504;80;25836;-71
2020/12/09 08:51:36;;;;;;;60.65;21.57;;;;;;;0.33;78.54;100625.69;1764104;79;25850;-71
2020/12/09 08:54:05;;;;;;;74.17;24.47;;;;;;;0.39;78.54;100628.31;1741774;81;28575;-71
2020/12/09 08:56:35;;;;;;;49.70;20.50;;;;;;;0.40;78.45;100626.11;1767557;79;26102;-72
2020/12/09 08:59:03;;;;;;;47.53;19.35;;;;;;;0.46;78.51;100626.09;1740597;81;25903;-71
2020/12/09 09:01:37;;;;;;;54.48;20.10;;;;;;;0.46;78.46;100629.18;1752373;79;26494;-71
2020/12/09 09:04:07;;;;;;;53.58;21.12;;;;;;;0.43;78.45;100620.83;1736437;81;25840;-72
2020/12/09 09:06:34;;;;;;;56.30;18.55;;;;;;;0.45;78.45;100622.15;1737996;79;27627;-72
2020/12/09 09:09:02;;;;;;;51.88;21.05;;;;;;;0.48;78.42;100624.78;1710435;82;25850;-72
2020/12/09 09:11:30;;;;;;;52.15;21.33;;;;;;;0.46;78.50;100628.73;1735370;79;26385;-71
2020/12/09 09:13:58;;;;;;;51.85;20.65;;;;;;;0.50;78.57;100630.92;1763947;79;26734;-71
2020/12/09 09:16:25;;;;;;;57.33;22.10;;;;;;;0.52;78.58;100625.20;1705846;81;26005;-71
2020/12/09 09:18:53;;;;;;;64.37;24.65;;;;;;;0.57;78.57;100631.34;1704393;82;27775;-71
2020/12/09 09:21:21;;;;;;;56.75;21.57;;;;;;;0.58;78.54;100627.38;1737571;79;25824;-71
2020/12/09 09:23:49;;;;;;;55.58;22.15;;;;;;;0.63;78.60;100630.88;1737563;81;25476;-71
2020/12/09 09:26:16;;;;;;;50.43;20.10;;;;;;;0.67;78.54;100638.34;1762945;79;26561;-71
2020/12/09 09:28:45;;;;;;;59.83;25.05;;;;;;;0.67;78.46;100638.34;1764584;79;25829;-74
2020/12/09 09:31:12;;;;;;;64.15;25.15;;;;;;;0.65;78.55;100648.02;1740910;79;27786;-73
2020/12/09 09:33:40;;;;;;;55.33;22.60;;;;;;;0.70;78.61;100648.89;1740734;80;25879;-73
2020/12/09 09:36:08;;;;;;;61.25;24.10;;;;;;;0.74;78.52;100649.75;1739500;81;25735;-71
2020/12/09 09:38:36;;;;;;;55.43;22.17;;;;;;;0.76;78.57;100650.63;1735764;80;26542;-71
2020/12/09 09:41:03;;;;;;;58.35;22.50;;;;;;;0.78;78.53;100653.70;1761418;80;25930;-71
2020/12/09 09:43:31;;;;;;;55.20;22.17;;;;;;;0.79;78.57;100650.17;1758440;79;26935;-71
2020/12/09 09:46:00;;;;;;;56.23;20.85;;;;;;;0.80;78.56;100647.97;1731134;81;25815;-71
2020/12/09 09:48:28;;;;;;;51.65;21.62;;;;;;;0.79;78.41;100648.86;1724303;80;25733;-71
2020/12/09 09:50:55;;;;;;;51.98;21.68;;;;;;;0.76;78.48;100639.63;1721213;81;25920;-71
2020/12/09 09:53:23;;;;;;;61.70;24.40;;;;;;;0.76;78.45;100634.36;1721423;80;25781;-71
2020/12/09 09:55:51;;;;;;;54.85;21.82;;;;;;;0.79;78.57;100633.03;1742644;80;27899;-71
2020/12/09 09:58:19;;;;;;;52.50;21.42;;;;;;;0.81;78.52;100631.26;1719129;80;26267;-70
2020/12/09 10:00:46;;;;;;;56.13;20.90;;;;;;;0.76;78.43;100629.08;1729323;81;25888;-71
2020/12/09 10:03:15;;;;;;;59.70;22.25;;;;;;;0.72;78.45;100630.41;1746937;80;26530;-71
2020/12/09 10:05:42;;;;;;;51.70;21.40;;;;;;;0.77;78.58;100631.28;1756377;80;25850;-70
2020/12/09 10:08:10;;;;;;;57.78;23.40;;;;;;;0.82;78.61;100630.37;1731620;80;27723;-73
2020/12/09 10:10:38;;;;;;;58.48;23.18;;;;;;;0.84;78.57;100631.25;1731592;80;25884;-71
2020/12/09 10:13:05;;;;;;;56.23;21.37;;;;;;;0.85;78.54;100631.68;1696834;83;25994;-70
2020/12/09 10:15:33;;;;;;;64.17;22.42;;;;;;;0.84;78.49;100633.89;1696080;81;26560;-71
2020/12/09 10:18:01;;;;;;;54.83;21.48;;;;;;;0.84;78.51;100627.29;1725994;81;25864;-73
2020/12/09 10:20:28;;;;;;;63.73;25.75;;;;;;;0.86;78.49;100633.87;1728758;81;28369;-71
2020/12/09 10:22:59;;;;;;;67.10;25.77;;;;;;;0.84;78.55;100630.37;1709480;81;26518;-71
2020/12/09 10:25:27;;;;;;;52.38;23.60;;;;;;;0.85;78.57;100640.92;1753675;80;26276;-71
2020/12/09 10:27:55;;;;;;;63.78;23.62;;;;;;;0.88;78.49;100640.03;1705265;82;26584;-72
2020/12/09 10:30:23;;;;;;;57.65;22.95;;;;;;;0.90;78.60;100639.58;1753313;80;26054;-71
2020/12/09 10:32:51;;;;;;;66.40;26.65;;;;;;;0.88;78.53;100633.43;1720995;81;27824;-71
2020/12/09 10:35:18;;;;;;;66.80;24.25;;;;;;;0.87;78.51;100633.00;1699989;81;25799;-71
2020/12/09 10:37:46;;;;;;;67.05;26.35;;;;;;;0.87;78.46;100634.31;1710517;81;25972;-72
2020/12/09 10:40:14;;;;;;;66.50;25.10;;;;;;;0.89;78.57;100637.83;1718467;81;26211;-71
2020/12/09 10:42:42;;;;;;;71.05;26.20;;;;;;;0.95;78.58;100640.44;1705809;82;26741;-71
2020/12/09 10:45:09;;;;;;;68.28;25.68;;;;;;;0.98;78.55;100640.42;1739271;81;27815;-71
2020/12/09 10:47:37;;;;;;;68.95;25.05;;;;;;;0.93;78.43;100643.53;1711925;81;25717;-71
2020/12/09 10:50:05;;;;;;;62.88;25.65;;;;;;;0.94;78.51;100639.56;1727238;81;25835;-71
2020/12/09 10:52:33;;;;;;;61.42;24.90;;;;;;;0.95;78.52;100638.67;1702422;81;25810;-69
2020/12/09 10:55:01;;;;;;;71.42;25.85;;;;;;;0.94;78.47;100637.36;1733907;81;25868;-69
2020/12/09 10:57:28;;;;;;;69.12;25.12;;;;;;;0.95;78.51;100641.31;1727646;81;28267;-69
2020/12/09 10:59:56;;;;;;;70.70;26.45;;;;;;;0.92;78.55;100630.77;1728184;81;25750;-69
2020/12/09 11:02:24;;;;;;;65.75;27.93;;;;;;;1.03;78.50;100641.72;1727487;81;25822;-69
2020/12/09 11:04:52;;;;;;;81.35;28.38;;;;;;;1.05;78.54;100638.63;1753256;80;26537;-70
2020/12/09 11:07:20;;;;;;;72.03;28.47;;;;;;;1.07;78.55;100639.50;1726251;80;25815;-69
2020/12/09 11:09:48;;;;;;;61.00;23.30;;;;;;;1.05;78.52;100633.36;1753758;80;28496;-69
2020/12/09 11:12:16;;;;;;;80.38;25.88;;;;;;;1.05;78.43;100626.76;1755019;80;25992;-70
2020/12/09 11:14:43;;;;;;;70.83;26.65;;;;;;;1.02;78.41;100630.73;1713243;81;25820;-72
2020/12/09 11:17:11;;;;;;;60.65;26.17;;;;;;;1.00;78.45;100622.82;1696111;81;26096;-69
2020/12/09 11:19:39;;;;;;;68.30;27.85;;;;;;;1.02;78.47;100626.77;1727284;81;25848;-70
2020/12/09 11:22:07;;;;;;;71.40;25.95;;;;;;;0.97;78.42;100625.03;1748794;80;27411;-70
2020/12/09 11:24:34;;;;;;;57.58;24.45;;;;;;;1.00;78.46;100623.27;1748256;80;25889;-70